createdAt,value
2023-02-18T00:02:15.617Z,24.25
2023-02-18T00:04:45.842Z,24.70
2023-02-18T00:07:15.770Z,24.73
2023-02-18T00:09:45.539Z,25.93
2023-02-18T00:12:15.228Z,26.37
2023-02-18T00:14:45.031Z,26.63
2023-02-18T00:17:14.906Z,27.50
2023-02-18T00:19:44.858Z,27.83
2023-02-18T00:22:14.392Z,26.87
2023-02-18T00:24:44.327Z,29.27
2023-02-18T00:27:14.192Z,29.03
2023-02-18T00:29:44.069Z,29.33
2023-02-18T00:32:13.956Z,30.32
2023-02-18T00:34:43.760Z,30.20
2023-02-18T00:37:13.582Z,29.60
2023-02-18T00:39:44.227Z,29.42
2023-02-18T00:42:15.356Z,29.20
2023-02-18T00:44:45.122Z,29.33
2023-02-18T00:47:16.825Z,28.33
2023-02-18T00:49:46.906Z,29.27
2023-02-18T00:52:16.718Z,28.13
2023-02-18T00:54:46.533Z,27.77
2023-02-18T00:57:16.627Z,29.30
2023-02-18T00:59:46.675Z,28.77
2023-02-18T01:02:16.688Z,27.57
2023-02-18T01:04:48.198Z,27.40
2023-02-18T01:07:18.007Z,27.90
2023-02-18T01:09:47.788Z,27.67
2023-02-18T01:12:17.930Z,28.05
2023-02-18T01:14:50.439Z,26.97
2023-02-18T01:17:20.263Z,28.47
2023-02-18T01:19:50.103Z,27.63
2023-02-18T01:22:20.205Z,27.85
2023-02-18T01:24:50.008Z,28.10
2023-02-18T01:27:19.811Z,26.93
2023-02-18T01:29:49.691Z,27.53
2023-02-18T01:32:19.399Z,27.73
2023-02-18T01:34:49.304Z,27.43
2023-02-18T01:37:19.639Z,26.45
2023-02-18T01:39:49.757Z,27.60
2023-02-18T01:42:24.906Z,27.37
2023-02-18T01:44:55.039Z,25.77
2023-02-18T01:47:24.798Z,26.80
2023-02-18T01:49:54.875Z,27.83
2023-02-18T01:52:27.413Z,27.20
2023-02-18T01:54:58.960Z,28.33
2023-02-18T01:57:36.122Z,26.77
2023-02-18T02:00:12.161Z,28.02
2023-02-18T02:02:47.136Z,26.90
2023-02-18T02:05:17.386Z,27.23
2023-02-18T02:07:50.221Z,28.50
2023-02-18T02:10:21.026Z,26.43
2023-02-18T02:13:05.886Z,25.33
2023-02-18T02:15:41.248Z,26.33
2023-02-18T02:18:23.644Z,27.32
2023-02-18T02:21:29.244Z,28.27
2023-02-18T02:24:21.337Z,27.37
2023-02-18T02:26:59.909Z,26.83
2023-02-18T02:29:38.745Z,27.53
2023-02-18T02:32:12.585Z,26.87
2023-02-18T02:35:00.403Z,25.47
2023-02-18T02:40:57.558Z,25.53
2023-02-18T02:43:38.367Z,23.83
2023-02-18T02:46:24.664Z,23.45
2023-02-18T02:52:43.622Z,23.83
2023-02-18T02:55:17.270Z,24.85
2023-02-18T02:57:53.571Z,25.50
2023-02-18T03:00:40.144Z,25.75
2023-02-18T03:03:35.310Z,24.87
2023-02-18T03:06:19.881Z,26.27
2023-02-18T03:08:59.792Z,25.63
2023-02-18T03:14:16.856Z,28.38
2023-02-18T03:16:53.719Z,27.03
2023-02-18T03:19:38.530Z,28.37
2023-02-18T03:22:21.178Z,28.30
2023-02-18T03:24:54.096Z,30.00
2023-02-18T03:27:33.586Z,28.23
2023-02-18T03:30:06.751Z,30.40
2023-02-18T03:32:37.621Z,28.17
2023-02-18T03:35:11.430Z,27.83
2023-02-18T03:37:50.352Z,27.57
2023-02-18T03:40:20.622Z,27.13
2023-02-18T03:42:50.836Z,26.57
2023-02-18T03:45:21.038Z,26.70
2023-02-18T03:47:50.995Z,25.93
2023-02-18T03:50:20.806Z,23.92
2023-02-18T03:52:51.230Z,24.45
2023-02-18T03:55:20.799Z,21.77
2023-02-18T03:57:50.690Z,20.10
2023-02-18T04:00:20.957Z,19.33
2023-02-18T04:02:50.872Z,19.77
2023-02-18T04:05:20.803Z,16.55
2023-02-18T04:07:50.385Z,15.00
2023-02-18T04:10:20.864Z,13.60
2023-02-18T04:12:50.650Z,13.80
2023-02-18T04:15:20.338Z,12.50
2023-02-18T04:17:50.990Z,10.63
2023-02-18T04:20:20.653Z,11.03
2023-02-18T04:22:50.573Z,10.53
2023-02-18T04:25:20.732Z,9.95
2023-02-18T04:27:50.406Z,10.25
2023-02-18T04:30:20.274Z,9.08
2023-02-18T04:32:50.078Z,8.27
2023-02-18T04:35:21.422Z,8.38
2023-02-18T04:37:51.295Z,7.80
2023-02-18T04:40:25.454Z,8.10
2023-02-18T04:42:55.490Z,7.28
2023-02-18T04:45:27.925Z,7.50
2023-02-18T04:47:57.702Z,7.53
2023-02-18T04:50:27.266Z,7.50
2023-02-18T04:52:59.896Z,6.70
2023-02-18T04:55:29.763Z,6.77
2023-02-18T04:57:59.919Z,6.67
2023-02-18T05:00:29.729Z,6.90
2023-02-18T05:02:59.847Z,6.28
2023-02-18T05:05:29.606Z,6.77
2023-02-18T05:07:59.489Z,6.63
2023-02-18T05:10:29.074Z,7.43
2023-02-18T05:12:58.960Z,7.30
2023-02-18T05:15:28.962Z,7.57
2023-02-18T05:17:58.888Z,8.17
2023-02-18T05:20:29.185Z,7.50
2023-02-18T05:22:58.979Z,7.63
2023-02-18T05:25:29.037Z,7.58
2023-02-18T05:27:59.082Z,8.10
2023-02-18T05:30:29.025Z,7.75
2023-02-18T05:32:58.866Z,8.13
2023-02-18T05:35:28.995Z,8.98
2023-02-18T05:37:59.060Z,8.68
2023-02-18T05:40:28.946Z,9.00
2023-02-18T05:42:58.824Z,8.30
2023-02-18T05:45:28.913Z,8.33
2023-02-18T05:47:58.768Z,8.83
2023-02-18T05:50:28.362Z,8.33
2023-02-18T05:52:58.187Z,8.40
2023-02-18T05:55:28.325Z,8.57
2023-02-18T05:57:58.486Z,7.37
2023-02-18T06:00:29.985Z,8.30
2023-02-18T06:03:00.479Z,7.87
2023-02-18T06:05:30.355Z,7.93
2023-02-18T06:08:00.193Z,8.50
2023-02-18T06:10:30.014Z,8.43
2023-02-18T06:13:01.479Z,7.80
2023-02-18T06:15:31.337Z,7.87
2023-02-18T06:18:01.106Z,7.37
2023-02-18T06:20:30.833Z,7.67
2023-02-18T06:23:00.478Z,7.87
2023-02-18T06:25:30.331Z,7.77
2023-02-18T06:28:00.121Z,7.73
2023-02-18T06:30:29.931Z,7.50
2023-02-18T06:32:59.690Z,7.40
2023-02-18T06:35:29.457Z,7.50
2023-02-18T06:37:59.227Z,7.80
2023-02-18T06:40:29.064Z,7.40
2023-02-18T06:42:58.938Z,6.60
2023-02-18T06:45:28.805Z,6.90
2023-02-18T06:47:58.630Z,7.03
2023-02-18T06:50:28.446Z,6.73
2023-02-18T06:52:59.496Z,7.37
2023-02-18T06:55:29.709Z,6.65
2023-02-18T06:57:59.673Z,5.87
2023-02-18T07:00:29.168Z,6.28
2023-02-18T07:02:59.090Z,6.03
2023-02-18T07:05:29.660Z,5.40
2023-02-18T07:07:59.397Z,5.80
2023-02-18T07:10:29.088Z,6.10
2023-02-18T07:12:58.857Z,4.80
2023-02-18T07:15:28.753Z,5.40
2023-02-18T07:17:58.606Z,4.90
2023-02-18T07:20:28.814Z,4.50
2023-02-18T07:22:58.883Z,4.83
2023-02-18T07:25:28.681Z,4.83
2023-02-18T07:27:58.543Z,4.83
2023-02-18T07:30:28.364Z,4.45
2023-02-18T07:32:58.133Z,4.40
2023-02-18T07:35:27.914Z,3.90
2023-02-18T07:37:58.017Z,4.33
2023-02-18T07:40:27.881Z,3.77
2023-02-18T07:42:57.410Z,4.35
2023-02-18T07:45:27.696Z,4.30
2023-02-18T07:47:57.575Z,4.33
2023-02-18T07:50:27.217Z,4.90
2023-02-18T07:52:57.104Z,6.47
2023-02-18T07:55:28.572Z,6.63
2023-02-18T07:57:59.684Z,8.05
2023-02-18T08:00:29.169Z,9.43
2023-02-18T08:02:59.096Z,10.77
2023-02-18T08:05:28.680Z,10.20
2023-02-18T08:07:58.883Z,11.33
2023-02-18T08:10:28.673Z,10.53
2023-02-18T08:12:58.767Z,11.22
2023-02-18T08:15:28.621Z,11.17
2023-02-18T08:17:58.610Z,11.03
2023-02-18T08:20:30.605Z,10.78
2023-02-18T08:23:00.212Z,10.53
2023-02-18T08:25:31.519Z,9.97
2023-02-18T08:28:01.636Z,9.83
2023-02-18T08:30:31.787Z,9.13
2023-02-18T08:33:01.692Z,8.70
2023-02-18T08:35:31.606Z,8.80
2023-02-18T08:38:01.530Z,8.20
2023-02-18T08:40:32.487Z,8.90
2023-02-18T08:43:02.325Z,7.07
2023-02-18T08:45:34.051Z,6.93
2023-02-18T08:48:16.115Z,7.47
2023-02-18T08:50:35.399Z,6.43
2023-02-18T08:53:05.711Z,5.43
2023-02-18T08:55:37.994Z,5.37
2023-02-18T08:58:10.235Z,5.58
2023-02-18T09:00:41.179Z,4.90
2023-02-18T09:03:14.324Z,4.65
2023-02-18T09:05:44.060Z,5.70
2023-02-18T09:08:13.838Z,6.03
2023-02-18T09:10:46.184Z,4.47
2023-02-18T09:13:15.160Z,5.20
2023-02-18T09:15:45.045Z,4.70
2023-02-18T09:18:14.920Z,5.40
2023-02-18T09:20:46.233Z,5.50
2023-02-18T09:23:16.334Z,5.97
2023-02-18T09:25:46.118Z,5.17
2023-02-18T09:28:17.573Z,5.40
2023-02-18T09:30:47.951Z,5.83
2023-02-18T09:33:18.033Z,5.75
2023-02-18T09:35:48.228Z,5.30
2023-02-18T09:38:19.113Z,5.17
2023-02-18T09:40:53.599Z,5.30
2023-02-18T09:43:43.259Z,4.97
2023-02-18T09:46:24.791Z,4.43
2023-02-18T09:48:56.520Z,4.30
2023-02-18T09:51:26.349Z,4.60
2023-02-18T09:53:56.395Z,4.80
2023-02-18T09:56:32.137Z,4.50
2023-02-18T09:59:04.686Z,4.70
2023-02-18T10:01:37.799Z,4.47
2023-02-18T10:04:18.980Z,4.00
2023-02-18T10:06:49.839Z,4.63
2023-02-18T10:09:25.611Z,4.30
2023-02-18T10:12:01.048Z,4.17
2023-02-18T10:14:31.589Z,4.07
2023-02-18T10:17:01.856Z,4.55
2023-02-18T10:19:37.350Z,4.40
2023-02-18T10:22:14.059Z,3.77
2023-02-18T10:24:48.868Z,3.97
2023-02-18T10:27:31.001Z,3.45
2023-02-18T10:30:21.221Z,3.50
2023-02-18T10:32:54.117Z,3.40
2023-02-18T10:35:32.585Z,3.10
2023-02-18T10:38:21.939Z,2.87
2023-02-18T10:41:14.046Z,2.80
2023-02-18T10:44:01.670Z,3.43
2023-02-18T10:46:37.377Z,3.10
2023-02-18T10:49:10.656Z,3.10
2023-02-18T10:51:43.506Z,2.97
2023-02-18T10:54:15.624Z,3.17
2023-02-18T10:56:50.818Z,2.92
2023-02-18T10:59:23.114Z,3.10
2023-02-18T11:01:58.398Z,3.77
2023-02-18T11:04:31.318Z,3.40
2023-02-18T11:07:06.229Z,3.60
2023-02-18T11:09:56.319Z,3.30
2023-02-18T11:12:29.018Z,4.08
2023-02-18T11:15:19.398Z,3.97
2023-02-18T11:17:54.749Z,3.13
2023-02-18T11:20:27.534Z,3.70
2023-02-18T11:23:09.210Z,2.92
2023-02-18T11:25:41.671Z,3.20
2023-02-18T11:28:20.596Z,3.56
2023-02-18T11:30:53.406Z,3.00
2023-02-18T11:33:32.078Z,3.27
2023-02-18T11:36:09.725Z,3.13
2023-02-18T11:38:48.277Z,2.90
2023-02-18T11:41:23.909Z,2.50
2023-02-18T11:43:57.428Z,2.87
2023-02-18T11:46:31.117Z,2.93
2023-02-18T11:49:20.825Z,2.40
2023-02-18T11:51:51.872Z,2.67
2023-02-18T11:54:31.318Z,2.85
2023-02-18T11:57:10.222Z,2.90
2023-02-18T11:59:41.864Z,2.80
2023-02-18T12:02:14.705Z,1.93
2023-02-18T12:05:04.341Z,2.83
2023-02-18T12:07:46.156Z,2.90
2023-02-18T12:10:27.954Z,2.84
2023-02-18T12:13:35.468Z,2.20
2023-02-18T12:16:12.253Z,2.55
2023-02-18T12:18:54.079Z,2.27
2023-02-18T12:21:47.519Z,2.53
2023-02-18T12:24:39.539Z,2.67
2023-02-18T12:27:18.300Z,2.20
2023-02-18T12:30:06.278Z,2.80
2023-02-18T12:32:39.111Z,2.90
2023-02-18T12:35:18.326Z,2.07
2023-02-18T12:38:09.197Z,2.13
2023-02-18T12:41:07.872Z,2.50
2023-02-18T12:44:06.606Z,2.87
2023-02-18T12:46:50.039Z,2.37
2023-02-18T12:49:34.666Z,2.30
2023-02-18T12:52:12.264Z,2.50
2023-02-18T12:55:05.793Z,2.77
2023-02-18T12:57:50.519Z,2.37
2023-02-18T13:00:30.969Z,2.17
2023-02-18T13:03:19.610Z,2.20
2023-02-18T13:06:13.552Z,2.30
2023-02-18T13:08:57.383Z,2.63
2023-02-18T13:11:52.845Z,2.40
2023-02-18T13:14:46.789Z,3.30
2023-02-18T13:17:19.139Z,2.37
2023-02-18T13:19:57.816Z,2.63
2023-02-18T13:22:30.576Z,2.63
2023-02-18T13:25:00.871Z,2.30
2023-02-18T13:27:36.350Z,2.40
2023-02-18T13:30:26.865Z,2.70
2023-02-18T13:33:24.776Z,2.77
2023-02-18T13:35:59.337Z,2.33
2023-02-18T13:38:35.031Z,2.73
2023-02-18T13:43:36.113Z,2.12
2023-02-18T13:46:16.367Z,2.50
2023-02-18T13:48:55.040Z,2.90
2023-02-18T13:51:48.683Z,3.00
2023-02-18T13:54:27.511Z,2.33
2023-02-18T13:57:03.624Z,2.47
2023-02-18T13:59:50.679Z,2.85
2023-02-18T14:02:29.676Z,2.42
2023-02-18T14:05:02.907Z,2.77
2023-02-18T14:07:44.724Z,2.40
2023-02-18T14:10:22.386Z,2.55
2023-02-18T14:15:28.167Z,2.60
2023-02-18T14:18:36.952Z,2.77
2023-02-18T14:21:17.728Z,2.40
2023-02-18T14:23:59.773Z,2.58
2023-02-18T14:26:47.062Z,3.10
2023-02-18T14:29:28.891Z,2.93
2023-02-18T14:32:07.522Z,3.07
2023-02-18T14:34:47.237Z,2.70
2023-02-18T14:37:29.110Z,2.70
2023-02-18T14:40:10.847Z,3.57
2023-02-18T14:42:43.455Z,2.95
2023-02-18T14:45:44.526Z,2.80
2023-02-18T14:48:48.753Z,2.70
2023-02-18T14:51:23.086Z,2.80
2023-02-18T14:53:53.913Z,2.90
2023-02-18T14:56:24.765Z,2.65
2023-02-18T14:58:57.516Z,2.60
2023-02-18T15:01:30.438Z,2.57
2023-02-18T15:04:03.331Z,2.37
2023-02-18T15:06:35.100Z,2.43
2023-02-18T15:09:16.584Z,2.53
2023-02-18T15:11:49.527Z,2.70
2023-02-18T15:14:24.605Z,2.37
2023-02-18T15:16:55.126Z,2.77
2023-02-18T15:19:28.191Z,2.40
2023-02-18T15:21:59.215Z,2.43
2023-02-18T15:24:37.737Z,2.40
2023-02-18T15:27:28.146Z,2.40
2023-02-18T15:30:01.016Z,2.40
2023-02-18T15:32:33.201Z,2.53
2023-02-18T15:35:05.682Z,2.90
2023-02-18T15:37:35.606Z,3.27
2023-02-18T15:40:09.654Z,2.23
2023-02-18T15:42:39.579Z,2.30
2023-02-18T15:45:27.755Z,1.93
2023-02-18T15:47:59.544Z,2.45
2023-02-18T15:50:32.980Z,2.40
2023-02-18T15:53:11.639Z,2.40
2023-02-18T15:55:44.569Z,2.72
2023-02-18T15:58:26.311Z,2.27
2023-02-18T16:00:59.626Z,2.40
2023-02-18T16:03:31.442Z,2.80
2023-02-18T16:06:18.762Z,2.40
2023-02-18T16:09:00.417Z,2.07
2023-02-18T16:11:35.932Z,2.43
2023-02-18T16:14:08.185Z,2.20
2023-02-18T16:16:39.741Z,2.60
2023-02-18T16:19:12.915Z,2.55
2023-02-18T16:21:47.072Z,2.30
2023-02-18T16:24:28.890Z,2.40
2023-02-18T16:27:00.783Z,2.60
2023-02-18T16:29:44.581Z,2.67
2023-02-18T16:32:14.541Z,2.80
2023-02-18T16:34:48.766Z,2.60
2023-02-18T16:37:36.650Z,2.90
2023-02-18T16:40:17.125Z,2.47
2023-02-18T16:42:46.926Z,3.13
2023-02-18T16:45:16.836Z,2.50
2023-02-18T16:47:49.417Z,3.00
2023-02-18T16:50:21.785Z,2.77
2023-02-18T16:52:53.306Z,2.50
2023-02-18T16:55:28.391Z,2.58
2023-02-18T16:57:58.262Z,2.00
2023-02-18T17:00:28.026Z,2.97
2023-02-18T17:03:00.069Z,2.60
2023-02-18T17:05:34.528Z,2.70
2023-02-18T17:08:23.297Z,2.87
2023-02-18T17:10:56.086Z,3.77
2023-02-18T17:13:29.142Z,3.37
2023-02-18T17:15:59.990Z,2.53
2023-02-18T17:18:29.580Z,2.45
2023-02-18T17:20:59.536Z,2.63
2023-02-18T17:23:29.754Z,3.72
2023-02-18T17:25:59.566Z,3.20
2023-02-18T17:28:29.181Z,3.20
2023-02-18T17:30:59.689Z,2.60
2023-02-18T17:33:29.702Z,3.13
2023-02-18T17:35:59.525Z,4.07
2023-02-18T17:38:29.712Z,3.45
2023-02-18T17:40:59.498Z,4.60
2023-02-18T17:43:29.061Z,3.30
2023-02-18T17:46:00.147Z,3.70
2023-02-18T17:48:31.718Z,3.70
2023-02-18T17:51:02.322Z,3.57
2023-02-18T17:53:32.248Z,3.57
2023-02-18T17:56:02.504Z,4.12
2023-02-18T17:58:32.260Z,3.73
2023-02-18T18:01:02.519Z,4.42
2023-02-18T18:03:32.269Z,4.70
2023-02-18T18:06:03.698Z,4.17
2023-02-18T18:08:33.492Z,4.90
2023-02-18T18:11:03.711Z,4.83
2023-02-18T18:13:33.695Z,5.50
2023-02-18T18:16:03.511Z,5.70
2023-02-18T18:18:33.303Z,5.87
2023-02-18T18:21:04.372Z,6.60
2023-02-18T18:23:35.995Z,6.70
2023-02-18T18:26:06.923Z,6.47
2023-02-18T18:28:37.738Z,6.93
2023-02-18T18:31:08.093Z,6.80
2023-02-18T18:33:41.414Z,6.20
2023-02-18T18:36:12.269Z,5.67
2023-02-18T18:38:42.105Z,4.50
2023-02-18T18:41:14.934Z,4.20
2023-02-18T18:43:45.170Z,3.47
2023-02-18T18:46:15.196Z,2.30
2023-02-18T18:48:45.375Z,5.22
2023-02-18T18:51:18.463Z,7.28
2023-02-18T18:53:48.390Z,12.37
2023-02-18T18:56:18.200Z,13.18
2023-02-18T18:58:49.910Z,12.10
2023-02-18T19:01:23.080Z,12.37
2023-02-18T19:03:53.087Z,12.23
2023-02-18T19:06:22.985Z,11.83
2023-02-18T19:08:52.922Z,12.83
2023-02-18T19:11:22.779Z,13.43
2023-02-18T19:13:52.614Z,12.13
2023-02-18T19:16:30.671Z,11.78
2023-02-18T19:19:00.460Z,11.97
2023-02-18T19:21:31.390Z,12.37
2023-02-18T19:24:01.391Z,13.37
2023-02-18T19:26:32.521Z,15.53
2023-02-18T19:29:02.583Z,15.25
2023-02-18T19:31:32.532Z,16.13
2023-02-18T19:34:02.435Z,14.90
2023-02-18T19:36:32.222Z,16.70
2023-02-18T19:39:02.049Z,16.73
2023-02-18T19:41:31.961Z,17.50
2023-02-18T19:44:01.844Z,17.80
2023-02-18T19:46:32.457Z,16.57
2023-02-18T19:49:02.342Z,17.17
2023-02-18T19:51:32.102Z,18.80
2023-02-18T19:54:01.975Z,17.87
2023-02-18T19:56:33.334Z,19.07
2023-02-18T19:59:03.119Z,17.97
2023-02-18T20:01:33.007Z,18.60
2023-02-18T20:04:02.921Z,19.10
2023-02-18T20:06:32.732Z,18.73
2023-02-18T20:09:05.279Z,17.77
2023-02-18T20:11:34.703Z,18.67
2023-02-18T20:14:09.237Z,19.64
2023-02-18T20:16:39.041Z,20.57
2023-02-18T20:19:08.805Z,19.50
2023-02-18T20:21:38.691Z,19.27
2023-02-18T20:24:11.593Z,18.17
2023-02-18T20:26:41.700Z,19.85
2023-02-18T20:29:11.753Z,19.57
2023-02-18T20:31:43.487Z,19.03
2023-02-18T20:34:14.915Z,19.60
2023-02-18T20:36:45.671Z,19.80
2023-02-18T20:39:16.628Z,19.40
2023-02-18T20:41:48.113Z,20.93
2023-02-18T20:44:19.568Z,19.85
2023-02-18T20:46:52.595Z,20.95
2023-02-18T20:49:23.158Z,19.10
2023-02-18T20:51:53.262Z,21.23
2023-02-18T20:54:23.229Z,19.77
2023-02-18T20:56:53.864Z,19.13
2023-02-18T20:59:23.761Z,19.67
2023-02-18T21:01:53.588Z,20.20
2023-02-18T21:04:23.365Z,20.17
2023-02-18T21:06:55.376Z,20.30
2023-02-18T21:09:26.142Z,20.67
2023-02-18T21:11:56.164Z,20.50
2023-02-18T21:14:25.614Z,20.47
2023-02-18T21:16:55.445Z,19.83
2023-02-18T21:19:25.215Z,20.20
2023-02-18T21:21:55.611Z,19.42
2023-02-18T21:24:25.448Z,20.73
2023-02-18T21:26:55.494Z,20.07
2023-02-18T21:29:25.669Z,20.25
2023-02-18T21:31:55.705Z,20.17
2023-02-18T21:34:25.970Z,20.40
2023-02-18T21:36:55.786Z,20.27
2023-02-18T21:39:25.681Z,19.13
2023-02-18T21:41:58.999Z,18.92
2023-02-18T21:44:40.290Z,20.62
2023-02-18T21:47:00.454Z,21.23
2023-02-18T21:49:30.445Z,20.53
2023-02-18T21:52:04.916Z,21.67
2023-02-18T21:54:39.066Z,20.90
2023-02-18T21:57:14.105Z,20.07
2023-02-18T21:59:45.301Z,20.93
2023-02-18T22:02:20.441Z,21.37
2023-02-18T22:04:51.542Z,22.67
2023-02-18T22:07:23.538Z,23.10
2023-02-18T22:09:56.756Z,22.52
2023-02-18T22:12:26.683Z,23.22
2023-02-18T22:14:56.476Z,24.17
2023-02-18T22:17:28.245Z,24.67
2023-02-18T22:19:58.131Z,24.20
2023-02-18T22:22:27.958Z,24.67
2023-02-18T22:24:57.731Z,24.27
2023-02-18T22:27:27.600Z,23.67
2023-02-18T22:29:57.453Z,25.23
2023-02-18T22:32:27.181Z,25.43
2023-02-18T22:34:57.399Z,24.90
2023-02-18T22:37:26.943Z,25.95
2023-02-18T22:39:56.734Z,25.70
2023-02-18T22:42:26.259Z,24.73
2023-02-18T22:44:57.057Z,24.70
2023-02-18T22:47:26.861Z,25.43
2023-02-18T22:49:57.047Z,25.12
2023-02-18T22:52:27.206Z,24.60
2023-02-18T22:54:57.086Z,24.43
2023-02-18T22:57:26.948Z,24.53
2023-02-18T22:59:57.507Z,25.30
2023-02-18T23:02:27.417Z,23.03
2023-02-18T23:04:57.282Z,23.00
2023-02-18T23:07:27.098Z,23.63
2023-02-18T23:09:56.914Z,22.33
2023-02-18T23:12:26.585Z,21.33
2023-02-18T23:14:56.355Z,20.57
2023-02-18T23:17:26.197Z,20.77
2023-02-18T23:19:56.067Z,20.13
2023-02-18T23:22:32.923Z,19.75
2023-02-18T23:25:03.516Z,18.30
2023-02-18T23:27:33.570Z,19.40
2023-02-18T23:30:03.869Z,18.60
2023-02-18T23:32:33.700Z,17.93
2023-02-18T23:35:03.580Z,18.03
2023-02-18T23:37:50.758Z,19.20
2023-02-18T23:40:20.566Z,16.25
2023-02-18T23:42:50.352Z,16.87
2023-02-18T23:45:19.972Z,14.73
2023-02-18T23:47:49.732Z,14.13
2023-02-18T23:50:19.815Z,14.25
2023-02-18T23:52:50.337Z,14.50
2023-02-18T23:55:19.826Z,14.07
2023-02-18T23:57:52.392Z,13.50
